createdAt,value
2023-03-28T00:02:20.621Z,0.50
2023-03-28T00:07:22.963Z,0.45
2023-03-28T00:12:24.748Z,0.32
2023-03-28T00:17:26.519Z,0.24
2023-03-28T00:22:30.555Z,0.14
2023-03-28T00:27:33.457Z,0.04
2023-03-28T00:32:35.013Z,-0.02
2023-03-28T00:37:36.529Z,-0.10
2023-03-28T00:42:42.228Z,-0.16
2023-03-28T00:47:47.336Z,-0.25
2023-03-28T00:52:52.227Z,-0.35
2023-03-28T00:57:54.598Z,-0.38
2023-03-28T01:02:58.262Z,-0.47
2023-03-28T01:08:11.054Z,-0.50
2023-03-28T01:13:16.420Z,-0.53
2023-03-28T01:18:22.597Z,-0.60
2023-03-28T01:24:10.997Z,-0.72
2023-03-28T01:29:14.588Z,-0.84
2023-03-28T01:34:36.609Z,-0.93
2023-03-28T01:40:01.116Z,-0.98
2023-03-28T01:45:24.290Z,-1.05
2023-03-28T01:50:32.207Z,-1.12
2023-03-28T01:55:42.628Z,-1.18
2023-03-28T02:00:54.931Z,-1.25
2023-03-28T02:05:58.841Z,-1.20
2023-03-28T02:11:00.722Z,-1.24
2023-03-28T02:16:13.990Z,-1.28
2023-03-28T02:21:57.489Z,-1.40
2023-03-28T02:27:13.631Z,-1.38
2023-03-28T02:32:49.692Z,-1.30
2023-03-28T02:38:17.367Z,-1.42
2023-03-28T02:43:51.122Z,-1.49
2023-03-28T02:49:02.514Z,-1.59
2023-03-28T02:54:33.432Z,-1.77
2023-03-28T03:00:22.686Z,-1.90
2023-03-28T03:05:26.605Z,-1.97
2023-03-28T03:10:28.614Z,-2.05
2023-03-28T03:15:30.892Z,-2.08
2023-03-28T03:20:33.743Z,-2.10
2023-03-28T03:25:35.946Z,-2.24
2023-03-28T03:30:56.760Z,-2.27
2023-03-28T03:36:17.838Z,-2.28
2023-03-28T03:41:20.018Z,-2.28
2023-03-28T03:46:21.640Z,-2.26
2023-03-28T03:51:24.670Z,-2.36
2023-03-28T03:56:29.322Z,-2.42
2023-03-28T04:01:32.862Z,-2.45
2023-03-28T04:06:58.174Z,-2.55
2023-03-28T04:11:59.976Z,-2.67
2023-03-28T04:17:04.604Z,-2.67
2023-03-28T04:22:08.151Z,-2.69
2023-03-28T04:27:11.413Z,-2.72
2023-03-28T04:32:15.162Z,-2.71
2023-03-28T04:37:43.508Z,-2.74
2023-03-28T04:42:45.115Z,-2.75
2023-03-28T04:47:55.913Z,-2.79
2023-03-28T04:52:58.019Z,-2.79
2023-03-28T04:58:00.322Z,-2.84
2023-03-28T05:03:06.746Z,-2.89
2023-03-28T05:08:17.652Z,-2.91
2023-03-28T05:13:19.336Z,-2.86
2023-03-28T05:18:33.783Z,-2.84
2023-03-28T05:23:35.980Z,-2.82
2023-03-28T05:28:44.318Z,-2.79
2023-03-28T05:33:46.373Z,-2.75
2023-03-28T05:38:58.389Z,-2.70
2023-03-28T05:44:00.861Z,-2.62
2023-03-28T05:49:20.217Z,-2.53
2023-03-28T05:54:25.841Z,-2.45
2023-03-28T05:59:27.500Z,-2.26
2023-03-28T06:04:29.481Z,-1.92
2023-03-28T06:09:31.620Z,-1.57
2023-03-28T06:14:34.965Z,-1.27
2023-03-28T06:19:40.333Z,-0.96
2023-03-28T06:24:42.322Z,-0.65
2023-03-28T06:29:43.985Z,-0.40
2023-03-28T06:34:45.738Z,-0.22
2023-03-28T06:39:50.737Z,-0.07
2023-03-28T06:44:52.630Z,0.29
2023-03-28T06:50:06.764Z,0.63
2023-03-28T06:55:25.510Z,0.90
2023-03-28T07:00:27.108Z,1.24
2023-03-28T07:05:47.381Z,1.60
2023-03-28T07:10:49.096Z,2.03
2023-03-28T07:16:01.053Z,2.53
2023-03-28T07:21:10.887Z,2.94
2023-03-28T07:26:14.470Z,3.28
2023-03-28T07:31:16.831Z,3.47
2023-03-28T07:36:21.204Z,3.73
2023-03-28T07:41:29.451Z,4.07
2023-03-28T07:46:37.455Z,4.46
2023-03-28T07:51:39.187Z,4.77
2023-03-28T07:56:41.134Z,5.01
2023-03-28T08:02:06.200Z,5.35
2023-03-28T08:07:08.255Z,5.64
2023-03-28T08:12:11.530Z,5.93
2023-03-28T08:17:13.147Z,6.04
2023-03-28T08:22:16.626Z,6.18
2023-03-28T08:27:27.745Z,6.22
2023-03-28T08:32:34.343Z,6.25
2023-03-28T08:37:36.065Z,6.37
2023-03-28T08:43:04.099Z,6.61
2023-03-28T08:48:18.008Z,6.90
2023-03-28T08:53:30.549Z,7.17
2023-03-28T08:59:10.876Z,7.49
2023-03-28T09:04:35.232Z,7.73
2023-03-28T09:10:24.434Z,8.01
2023-03-28T09:15:56.447Z,7.93
2023-03-28T09:21:17.426Z,8.15
2023-03-28T09:26:32.752Z,8.27
2023-03-28T09:31:44.437Z,8.49
2023-03-28T09:36:55.308Z,8.74
2023-03-28T09:42:16.220Z,8.91
2023-03-28T09:47:20.744Z,9.03
2023-03-28T09:52:33.974Z,8.83
2023-03-28T09:58:05.364Z,9.28
2023-03-28T10:03:30.190Z,10.00
2023-03-28T10:08:39.966Z,10.27
2023-03-28T10:13:56.442Z,10.54
2023-03-28T10:18:59.017Z,10.28
2023-03-28T10:24:20.283Z,10.40
2023-03-28T10:29:28.316Z,10.51
2023-03-28T10:34:31.598Z,9.92
2023-03-28T10:40:07.908Z,9.54
2023-03-28T10:45:35.965Z,10.11
2023-03-28T10:50:44.819Z,9.82
2023-03-28T10:56:00.083Z,9.51
2023-03-28T11:01:21.011Z,9.24
2023-03-28T11:06:45.442Z,9.02
2023-03-28T11:12:06.607Z,8.67
2023-03-28T11:17:41.496Z,9.35
2023-03-28T11:23:31.825Z,9.46
2023-03-28T11:29:42.117Z,10.40
2023-03-28T11:35:06.639Z,10.59
2023-03-28T11:40:28.179Z,10.58
2023-03-28T11:45:50.031Z,10.72
2023-03-28T11:51:33.998Z,10.24
2023-03-28T11:56:53.680Z,10.09
2023-03-28T12:02:27.815Z,10.01
2023-03-28T12:07:39.296Z,9.80
2023-03-28T12:13:31.821Z,9.63
2023-03-28T12:18:45.099Z,9.37
2023-03-28T12:24:29.781Z,9.24
2023-03-28T12:29:52.325Z,9.04
2023-03-28T12:35:11.506Z,9.06
2023-03-28T12:40:59.262Z,8.79
2023-03-28T12:46:08.321Z,8.57
2023-03-28T12:51:22.387Z,8.80
2023-03-28T12:56:24.036Z,8.85
2023-03-28T13:01:39.485Z,9.10
2023-03-28T13:07:53.613Z,9.21
2023-03-28T13:13:14.465Z,9.05
2023-03-28T13:18:20.221Z,9.21
2023-03-28T13:23:44.527Z,9.22
2023-03-28T13:28:52.780Z,9.62
2023-03-28T13:34:01.917Z,9.82
2023-03-28T13:39:22.286Z,9.73
2023-03-28T13:44:42.842Z,9.73
2023-03-28T13:49:50.509Z,10.04
2023-03-28T13:54:55.020Z,10.00
2023-03-28T14:00:01.444Z,10.10
2023-03-28T14:05:21.875Z,10.30
2023-03-28T14:10:30.935Z,10.43
2023-03-28T14:15:39.782Z,10.64
2023-03-28T14:20:43.789Z,10.47
2023-03-28T14:25:45.390Z,10.41
2023-03-28T14:30:46.890Z,9.93
2023-03-28T14:36:03.684Z,9.72
2023-03-28T14:41:21.282Z,9.78
2023-03-28T14:46:29.076Z,9.59
2023-03-28T14:51:46.180Z,9.31
2023-03-28T14:56:47.931Z,9.12
2023-03-28T15:01:51.545Z,9.01
2023-03-28T15:06:57.505Z,8.99
2023-03-28T15:12:06.773Z,8.85
2023-03-28T15:17:20.849Z,8.82
2023-03-28T15:22:27.186Z,8.71
2023-03-28T15:27:31.572Z,8.61
2023-03-28T15:32:33.474Z,8.68
2023-03-28T15:37:43.397Z,8.85
2023-03-28T15:42:46.856Z,9.02
2023-03-28T15:47:54.998Z,9.13
2023-03-28T15:52:58.557Z,9.29
2023-03-28T15:58:00.361Z,9.28
2023-03-28T16:03:21.276Z,9.18
2023-03-28T16:08:33.713Z,9.09
2023-03-28T16:13:35.587Z,9.03
2023-03-28T16:19:02.016Z,8.99
2023-03-28T16:24:03.707Z,8.83
2023-03-28T16:29:05.265Z,8.66
2023-03-28T16:34:09.674Z,8.54
2023-03-28T16:39:12.005Z,8.49
2023-03-28T16:44:13.595Z,8.39
2023-03-28T16:49:16.475Z,8.32
2023-03-28T16:54:20.255Z,8.32
2023-03-28T16:59:22.721Z,8.35
2023-03-28T17:04:24.310Z,8.41
2023-03-28T17:09:26.405Z,8.37
2023-03-28T17:14:27.923Z,8.28
2023-03-28T17:19:29.513Z,8.25
2023-03-28T17:24:31.476Z,8.25
2023-03-28T17:29:35.562Z,8.20
2023-03-28T17:34:37.207Z,8.09
2023-03-28T17:39:39.758Z,7.98
2023-03-28T17:44:41.388Z,7.93
2023-03-28T17:49:43.194Z,7.84
2023-03-28T17:54:44.752Z,7.75
2023-03-28T17:59:47.074Z,7.61
2023-03-28T18:04:48.766Z,7.53
2023-03-28T18:09:57.119Z,7.43
2023-03-28T18:15:00.932Z,7.29
2023-03-28T18:20:03.140Z,7.16
2023-03-28T18:25:06.308Z,7.05
2023-03-28T18:30:09.436Z,6.97
2023-03-28T18:35:11.608Z,6.86
2023-03-28T18:40:14.426Z,6.77
2023-03-28T18:45:16.265Z,6.80
2023-03-28T18:50:17.875Z,6.80
2023-03-28T18:55:19.534Z,6.80
2023-03-28T19:00:21.765Z,6.78
2023-03-28T19:05:24.588Z,6.77
2023-03-28T19:10:27.067Z,6.78
2023-03-28T19:15:28.799Z,6.75
2023-03-28T19:20:30.305Z,6.69
2023-03-28T19:25:31.989Z,6.65
2023-03-28T19:30:37.696Z,6.62
2023-03-28T19:35:41.116Z,6.57
2023-03-28T19:40:42.654Z,6.56
2023-03-28T19:45:46.674Z,6.44
2023-03-28T19:50:50.130Z,6.38
2023-03-28T19:55:56.509Z,6.34
2023-03-28T20:00:58.461Z,6.42
2023-03-28T20:06:05.767Z,6.48
2023-03-28T20:11:09.340Z,6.37
2023-03-28T20:16:12.627Z,6.42
2023-03-28T20:21:14.283Z,6.48
2023-03-28T20:26:18.776Z,6.54
2023-03-28T20:31:20.609Z,6.51
2023-03-28T20:36:22.732Z,6.51
2023-03-28T20:41:24.566Z,6.54
2023-03-28T20:46:26.590Z,6.62
2023-03-28T20:51:29.267Z,6.57
2023-03-28T20:56:31.684Z,6.62
2023-03-28T21:01:33.662Z,6.72
2023-03-28T21:06:38.126Z,6.68
2023-03-28T21:11:40.278Z,6.59
2023-03-28T21:16:42.004Z,6.50
2023-03-28T21:21:43.550Z,6.42
2023-03-28T21:26:45.053Z,6.43
2023-03-28T21:31:47.176Z,6.45
2023-03-28T21:36:48.728Z,6.60
2023-03-28T21:41:50.286Z,6.57
2023-03-28T21:46:51.809Z,6.58
2023-03-28T21:51:53.902Z,6.59
2023-03-28T21:56:55.757Z,6.58
2023-03-28T22:01:57.296Z,6.22
2023-03-28T22:06:58.886Z,5.98
2023-03-28T22:12:02.840Z,5.87
2023-03-28T22:17:04.782Z,5.86
2023-03-28T22:22:06.689Z,5.81
2023-03-28T22:27:09.736Z,5.59
2023-03-28T22:32:11.360Z,5.49
2023-03-28T22:37:13.612Z,5.39
2023-03-28T22:42:16.212Z,5.28
2023-03-28T22:47:18.091Z,5.28
2023-03-28T22:52:19.614Z,5.29
2023-03-28T22:57:21.210Z,5.29
2023-03-28T23:02:22.808Z,5.32
2023-03-28T23:07:24.362Z,5.47
2023-03-28T23:12:25.861Z,5.58
2023-03-28T23:17:28.383Z,5.61
2023-03-28T23:22:29.989Z,5.59
2023-03-28T23:27:31.504Z,5.59
2023-03-28T23:32:33.342Z,5.62
2023-03-28T23:37:38.106Z,5.62
2023-03-28T23:42:42.759Z,5.59
2023-03-28T23:47:44.969Z,5.60
2023-03-28T23:52:46.571Z,5.64
2023-03-28T23:57:48.057Z,5.70
